Time;durP1;ratioP1;P1;durP2;ratioP2;P2;SDS_P1;SDS_P2;PMS_P1;PMS_P2;Temp;Humidity;BMP_temperature;BMP_pressure;BME280_temperature;BME280_humidity;BME280_pressure;Samples;Min_cycle;Max_cycle;Signal;HPM_P1;HPM_P2
2021/04/17 00:01:35;;;;;;;;;;;;;;;18.05;29.37;100660.00;4402029;32;19958;-52
2021/04/17 00:04:01;;;;;;;;;;;;;;;18.07;29.39;100658.28;4415916;32;19952;-52
2021/04/17 00:06:27;;;;;;;;;;;;;;;17.96;29.60;100655.34;4416988;32;20331;-49
2021/04/17 00:08:53;;;;;;;;;;;;;;;18.00;29.46;100656.34;4416918;32;19950;-53
2021/04/17 00:11:19;;;;;;;;;;;;;;;18.04;29.34;100652.94;4417361;32;19946;-53
2021/04/17 00:13:44;;;;;;;;;;;;;;;18.09;29.31;100651.34;4417052;32;20285;-52
2021/04/17 00:16:10;;;;;;;;;;;;;;;17.99;29.46;100652.78;4416278;32;19997;-52
2021/04/17 00:18:36;;;;;;;;;;;;;;;18.06;29.30;100645.97;4415738;32;19967;-51
2021/04/17 00:21:02;;;;;;;;;;;;;;;18.04;29.60;100645.03;4415337;32;19968;-49
2021/04/17 00:23:28;;;;;;;;;;;;;;;17.98;29.50;100644.00;4416404;32;20603;-53
2021/04/17 00:25:54;;;;;;;;;;;;;;;17.98;29.54;100641.38;4416698;32;20355;-49
2021/04/17 00:28:20;;;;;;;;;;;;;;;17.96;29.61;100639.53;4416006;32;19982;-51
2021/04/17 00:30:46;;;;;;;;;;;;;;;17.93;29.70;100636.84;4416786;32;19966;-49
2021/04/17 00:33:12;;;;;;;;;;;;;;;17.94;29.67;100634.22;4410641;32;19955;-52
2021/04/17 00:35:37;;;;;;;;;;;;;;;17.90;29.84;100632.38;4401793;32;20312;-51
2021/04/17 00:38:03;;;;;;;;;;;;;;;17.92;29.72;100629.78;4405130;32;19949;-51
2021/04/17 00:40:29;;;;;;;;;;;;;;;17.92;29.76;100628.03;4417235;32;20269;-54
2021/04/17 00:42:55;;;;;;;;;;;;;;;17.93;29.62;100627.16;4416522;32;20221;-54
2021/04/17 00:45:21;;;;;;;;;;;;;;;18.03;29.51;100630.09;4416250;32;20362;-51
2021/04/17 00:47:47;;;;;;;;;;;;;;;17.94;29.56;100626.31;4416212;32;19968;-52
2021/04/17 00:50:13;;;;;;;;;;;;;;;17.94;29.61;100625.44;4416673;32;19946;-48
2021/04/17 00:52:39;;;;;;;;;;;;;;;17.98;29.64;100625.56;4416634;32;19962;-53
2021/04/17 00:55:04;;;;;;;;;;;;;;;17.96;29.60;100619.38;4416536;32;19942;-54
2021/04/17 00:57:30;;;;;;;;;;;;;;;17.96;29.54;100627.28;4416288;32;19950;-49
2021/04/17 00:59:56;;;;;;;;;;;;;;;17.98;29.65;100628.19;4415675;32;20343;-52
2021/04/17 01:02:22;;;;;;;;;;;;;;;18.02;29.57;100620.37;4415849;32;19950;-53
2021/04/17 01:04:51;;;;;;;;;;;;;;;17.97;29.56;100617.59;4416613;32;19950;-55
2021/04/17 01:07:17;;;;;;;;;;;;;;;17.97;29.63;100625.50;4415563;32;20319;-53
2021/04/17 01:09:42;;;;;;;;;;;;;;;17.95;29.69;100620.19;4415777;32;19998;-53
2021/04/17 01:12:08;;;;;;;;;;;;;;;17.90;29.67;100613.91;4416108;32;20005;-48
2021/04/17 01:14:34;;;;;;;;;;;;;;;17.90;29.63;100624.47;4415815;32;20006;-51
2021/04/17 01:17:00;;;;;;;;;;;;;;;17.93;29.73;100618.38;4415553;32;20041;-50
2021/04/17 01:19:28;;;;;;;;;;;;;;;17.87;29.81;100612.94;4406701;32;20268;-50
2021/04/17 01:21:54;;;;;;;;;;;;;;;17.91;29.77;100622.72;4400635;32;20048;-52
2021/04/17 01:24:20;;;;;;;;;;;;;;;17.86;29.56;100617.34;4408633;32;19986;-51
2021/04/17 01:26:46;;;;;;;;;;;;;;;17.90;29.73;100619.19;4415668;32;19958;-54
2021/04/17 01:29:12;;;;;;;;;;;;;;;17.96;29.57;100623.72;4414554;32;19962;-50
2021/04/17 01:31:39;;;;;;;;;;;;;;;17.96;29.67;100622.00;4415918;32;19953;-48
2021/04/17 01:34:05;;;;;;;;;;;;;;;17.91;29.75;100618.34;4414981;32;19950;-52
2021/04/17 01:36:31;;;;;;;;;;;;;;;17.82;29.74;100618.09;4416176;32;20025;-51
2021/04/17 01:38:57;;;;;;;;;;;;;;;17.89;29.80;100622.69;4415564;32;19961;-52
2021/04/17 01:41:23;;;;;;;;;;;;;;;17.88;29.69;100615.63;4415307;32;20034;-47
2021/04/17 01:43:49;;;;;;;;;;;;;;;17.89;29.88;100622.69;4416546;32;20000;-54
2021/04/17 01:46:15;;;;;;;;;;;;;;;17.92;29.60;100614.84;4414652;32;19973;-52
2021/04/17 01:48:41;;;;;;;;;;;;;;;17.88;29.66;100614.72;4411573;32;19985;-51
2021/04/17 01:51:07;;;;;;;;;;;;;;;17.89;29.62;100622.69;4417133;32;19980;-53
2021/04/17 01:53:32;;;;;;;;;;;;;;;17.89;29.66;100617.41;4416560;32;20436;-52
2021/04/17 01:55:59;;;;;;;;;;;;;;;17.84;29.77;100616.37;4415768;32;19954;-49
2021/04/17 01:58:24;;;;;;;;;;;;;;;17.84;29.80;100608.47;4416178;32;19996;-49
2021/04/17 02:00:50;;;;;;;;;;;;;;;17.85;29.79;100610.28;4416226;32;19989;-51
2021/04/17 02:03:16;;;;;;;;;;;;;;;17.91;29.54;100610.44;4414383;32;19942;-47
2021/04/17 02:05:42;;;;;;;;;;;;;;;17.79;29.89;100611.00;4415349;32;19962;-53
2021/04/17 02:08:08;;;;;;;;;;;;;;;17.80;29.92;100606.63;4415730;32;19950;-50
2021/04/17 02:10:34;;;;;;;;;;;;;;;17.83;29.79;100607.59;4413484;32;20360;-51
2021/04/17 02:13:00;;;;;;;;;;;;;;;17.88;29.77;100609.44;4416837;32;20067;-49
2021/04/17 02:15:29;;;;;;;;;;;;;;;17.87;29.81;100608.59;4415094;32;19961;-49
2021/04/17 02:17:55;;;;;;;;;;;;;;;17.86;29.80;100601.53;4415003;32;19958;-51
2021/04/17 02:20:21;;;;;;;;;;;;;;;17.85;29.63;100599.75;4419660;32;19949;-51
2021/04/17 02:22:47;;;;;;;;;;;;;;;17.82;29.91;100602.28;4419359;32;19983;-53
2021/04/17 02:25:13;;;;;;;;;;;;;;;17.82;29.74;100600.56;4417721;32;20287;-53
2021/04/17 02:27:38;;;;;;;;;;;;;;;17.84;29.59;100604.09;4418469;32;19946;-49
2021/04/17 02:30:04;;;;;;;;;;;;;;;17.83;29.71;100604.06;4418741;32;20313;-47
2021/04/17 02:32:30;;;;;;;;;;;;;;;17.82;29.69;100603.19;4418319;32;20395;-53
2021/04/17 02:34:56;;;;;;;;;;;;;;;17.80;29.69;100597.00;4419880;32;19990;-53
2021/04/17 02:37:22;;;;;;;;;;;;;;;17.79;29.76;100596.94;4419173;32;20300;-51
2021/04/17 02:39:48;;;;;;;;;;;;;;;17.79;29.72;100596.94;4418437;32;19951;-51
2021/04/17 02:42:14;;;;;;;;;;;;;;;17.75;29.87;100593.31;4418815;32;19954;-50
2021/04/17 02:44:40;;;;;;;;;;;;;;;17.79;29.88;100591.66;4420297;32;19985;-49
2021/04/17 02:47:05;;;;;;;;;;;;;;;17.79;29.70;100589.94;4418295;32;19942;-53
2021/04/17 02:49:31;;;;;;;;;;;;;;;17.79;29.75;100589.94;4417212;32;19964;-53
2021/04/17 02:51:57;;;;;;;;;;;;;;;17.81;29.84;100597.88;4403688;32;20006;-52
2021/04/17 02:54:23;;;;;;;;;;;;;;;17.78;29.86;100595.16;4404103;32;20049;-50
2021/04/17 02:56:49;;;;;;;;;;;;;;;17.76;29.79;100594.22;4415303;32;19977;-51
2021/04/17 02:59:15;;;;;;;;;;;;;;;17.80;29.78;100590.81;4419363;32;19988;-54
2021/04/17 03:01:41;;;;;;;;;;;;;;;17.83;29.77;100590.88;4419670;32;19950;-51
2021/04/17 03:04:07;;;;;;;;;;;;;;;17.80;29.83;100588.19;4417950;32;19950;-53
2021/04/17 03:06:32;;;;;;;;;;;;;;;17.72;29.97;100582.72;4418875;32;19942;-50
2021/04/17 03:08:58;;;;;;;;;;;;;;;17.74;29.97;100585.41;4418687;32;20007;-50
2021/04/17 03:11:24;;;;;;;;;;;;;;;17.74;29.91;100585.41;4418472;32;19950;-49
2021/04/17 03:13:50;;;;;;;;;;;;;;;17.73;29.87;100583.63;4418129;32;19990;-49
2021/04/17 03:16:16;;;;;;;;;;;;;;;17.76;29.70;100578.44;4417049;32;19962;-53
2021/04/17 03:18:42;;;;;;;;;;;;;;;17.70;29.93;100577.38;4416910;32;19961;-54
2021/04/17 03:21:08;;;;;;;;;;;;;;;17.72;29.98;100581.81;4417230;32;19970;-51
2021/04/17 03:23:34;;;;;;;;;;;;;;;17.72;29.95;100581.81;4418234;32;19970;-52
2021/04/17 03:25:59;;;;;;;;;;;;;;;17.75;29.93;100572.25;4411095;32;20374;-50
2021/04/17 03:28:25;;;;;;;;;;;;;;;17.76;29.97;100573.16;4407360;32;20016;-53
2021/04/17 03:30:51;;;;;;;;;;;;;;;17.68;30.08;100562.41;4415198;32;20302;-52
2021/04/17 03:33:17;;;;;;;;;;;;;;;17.73;29.98;100565.19;4401869;32;19950;-51
2021/04/17 03:35:43;;;;;;;;;;;;;;;17.73;29.81;100567.81;4411324;32;19995;-49
2021/04/17 03:38:09;;;;;;;;;;;;;;;17.72;29.99;100566.00;4417910;32;19984;-52
2021/04/17 03:40:35;;;;;;;;;;;;;;;17.73;30.00;100565.19;4417958;32;19957;-51
2021/04/17 03:43:01;;;;;;;;;;;;;;;17.69;30.04;100574.75;4418818;32;20005;-48
2021/04/17 03:45:28;;;;;;;;;;;;;;;17.72;29.99;100581.81;4418198;32;19954;-54
2021/04/17 03:47:54;;;;;;;;;;;;;;;17.69;30.10;100583.50;4416748;32;19954;-53
2021/04/17 03:50:20;;;;;;;;;;;;;;;17.68;29.96;100579.09;4418127;32;19973;-49
2021/04/17 03:52:46;;;;;;;;;;;;;;;17.72;29.94;100581.81;4404999;32;20328;-53
2021/04/17 03:55:12;;;;;;;;;;;;;;;17.74;29.92;100580.13;4403106;32;19994;-49
2021/04/17 03:57:38;;;;;;;;;;;;;;;17.72;30.14;100577.44;4415933;32;20379;-47
2021/04/17 04:00:04;;;;;;;;;;;;;;;17.69;30.00;100575.59;4418227;32;19942;-52
2021/04/17 04:02:30;;;;;;;;;;;;;;;17.61;30.20;100579.81;4418009;32;20291;-53
2021/04/17 04:04:55;;;;;;;;;;;;;;;17.64;30.17;100574.62;4417416;32;19958;-54
2021/04/17 04:07:21;;;;;;;;;;;;;;;17.63;30.07;100572.81;4418206;32;19966;-51
2021/04/17 04:09:47;;;;;;;;;;;;;;;17.63;30.05;100572.81;4417490;32;19946;-47
2021/04/17 04:12:13;;;;;;;;;;;;;;;17.65;30.06;100568.50;4417569;32;19998;-51
2021/04/17 04:14:39;;;;;;;;;;;;;;;17.66;30.12;100572.91;4418174;32;19958;-49
2021/04/17 04:17:05;;;;;;;;;;;;;;;17.66;30.04;100575.53;4417205;32;19990;-53
2021/04/17 04:19:31;;;;;;;;;;;;;;;17.62;30.15;100576.31;4417365;32;19954;-48
2021/04/17 04:21:57;;;;;;;;;;;;;;;17.68;30.05;100575.59;4417439;32;20251;-54
2021/04/17 04:24:22;;;;;;;;;;;;;;;17.66;30.13;100572.03;4418718;32;20374;-51
2021/04/17 04:26:48;;;;;;;;;;;;;;;17.67;30.06;100579.06;4417374;32;19946;-52
2021/04/17 04:29:14;;;;;;;;;;;;;;;17.64;30.14;100584.25;4416312;32;19977;-52
2021/04/17 04:31:40;;;;;;;;;;;;;;;17.63;30.27;100579.81;4414754;32;19989;-53
2021/04/17 04:34:06;;;;;;;;;;;;;;;17.66;30.18;100580.81;4402871;32;19935;-53
2021/04/17 04:36:32;;;;;;;;;;;;;;;17.62;30.12;100576.31;4403606;32;20283;-49
2021/04/17 04:38:58;;;;;;;;;;;;;;;17.58;30.15;100579.69;4414819;32;19954;-51
2021/04/17 04:41:24;;;;;;;;;;;;;;;17.56;30.25;100584.94;4418005;32;20033;-49
2021/04/17 04:43:50;;;;;;;;;;;;;;;17.54;30.34;100588.38;4418233;32;19957;-54
2021/04/17 04:46:15;;;;;;;;;;;;;;;17.62;30.25;100591.22;4415518;32;19946;-53
2021/04/17 04:48:41;;;;;;;;;;;;;;;17.65;30.04;100594.81;4416599;32;19953;-53
2021/04/17 04:51:07;;;;;;;;;;;;;;;17.55;30.28;100590.16;4418439;32;19949;-54
2021/04/17 04:53:33;;;;;;;;;;;;;;;17.58;30.22;100590.22;4417867;32;19942;-52
2021/04/17 04:55:59;;;;;;;;;;;;;;;17.61;30.26;100595.59;4418116;32;19954;-49
2021/04/17 04:58:25;;;;;;;;;;;;;;;17.62;30.22;100594.75;4416861;32;19988;-47
2021/04/17 05:00:51;;;;;;;;;;;;;;;17.61;30.28;100598.25;4414824;32;19950;-52
2021/04/17 05:03:17;;;;;;;;;;;;;;;17.61;30.19;100590.34;4416247;32;20330;-53
2021/04/17 05:05:43;;;;;;;;;;;;;;;17.56;30.32;100598.09;4417302;32;19958;-55
2021/04/17 05:08:08;;;;;;;;;;;;;;;17.55;30.29;100598.06;4415807;32;19950;-53
2021/04/17 05:10:34;;;;;;;;;;;;;;;17.57;30.35;100596.34;4415995;32;20564;-55
2021/04/17 05:13:00;;;;;;;;;;;;;;;17.64;30.30;100592.13;4415634;32;19950;-52
2021/04/17 05:15:26;;;;;;;;;;;;;;;17.56;30.32;100591.94;4415503;32;19984;-50
2021/04/17 05:17:52;;;;;;;;;;;;;;;17.66;30.10;100599.25;4415411;32;19988;-52
2021/04/17 05:20:18;;;;;;;;;;;;;;;17.67;30.11;100601.03;4416195;32;19969;-53
2021/04/17 05:22:44;;;;;;;;;;;;;;;17.60;30.29;100603.44;4416541;32;19961;-51
2021/04/17 05:25:10;;;;;;;;;;;;;;;17.61;30.34;100600.88;4415818;32;19993;-53
2021/04/17 05:27:35;;;;;;;;;;;;;;;17.68;30.21;100597.53;4415181;32;19942;-52
2021/04/17 05:30:01;;;;;;;;;;;;;;;17.66;30.20;100593.97;4415168;32;20009;-50
2021/04/17 05:32:27;;;;;;;;;;;;;;;17.65;30.25;100594.81;4414137;32;20006;-52
2021/04/17 05:34:53;;;;;;;;;;;;;;;17.72;30.12;100597.59;4400656;32;20403;-51
2021/04/17 05:37:19;;;;;;;;;;;;;;;17.75;30.04;100598.59;4400235;32;19983;-55
2021/04/17 05:39:45;;;;;;;;;;;;;;;17.77;30.07;100601.28;4415802;32;19960;-52
2021/04/17 05:42:11;;;;;;;;;;;;;;;17.72;30.16;100597.59;4414617;32;20433;-52
2021/04/17 05:44:37;;;;;;;;;;;;;;;17.66;30.33;100599.25;4415127;32;20346;-50
2021/04/17 05:47:03;;;;;;;;;;;;;;;17.67;30.21;100601.03;4416446;32;19948;-51
2021/04/17 05:49:29;;;;;;;;;;;;;;;17.74;30.04;100606.47;4415121;32;19958;-51
2021/04/17 05:51:54;;;;;;;;;;;;;;;17.61;30.28;100606.13;4419114;32;19953;-54
2021/04/17 05:54:20;;;;;;;;;;;;;;;17.51;30.49;100604.97;4419703;32;20007;-53
2021/04/17 05:56:46;;;;;;;;;;;;;;;17.62;30.37;100607.91;4419238;32;19957;-53
2021/04/17 05:59:12;;;;;;;;;;;;;;;17.64;30.29;100605.31;4419361;32;20001;-52
2021/04/17 06:01:38;;;;;;;;;;;;;;;17.67;30.31;100606.28;4419341;32;19958;-53
2021/04/17 06:04:04;;;;;;;;;;;;;;;17.76;30.11;100604.75;4418791;32;19978;-51
2021/04/17 06:06:30;;;;;;;;;;;;;;;17.74;30.16;100606.47;4419969;32;19966;-51
2021/04/17 06:08:56;;;;;;;;;;;;;;;17.78;30.19;100608.31;4418772;32;20390;-53
2021/04/17 06:11:22;;;;;;;;;;;;;;;17.65;30.32;100610.63;4417965;32;19995;-52
2021/04/17 06:13:48;;;;;;;;;;;;;;;17.69;30.28;100609.84;4419741;32;19999;-52
2021/04/17 06:16:13;;;;;;;;;;;;;;;17.73;30.20;100604.69;4418339;32;19954;-51
2021/04/17 06:18:39;;;;;;;;;;;;;;;17.68;30.27;100613.34;4417971;32;19983;-53
2021/04/17 06:21:05;;;;;;;;;;;;;;;17.62;30.42;100613.19;4419397;32;19952;-54
2021/04/17 06:23:31;;;;;;;;;;;;;;;17.72;30.31;100614.31;4419923;32;20373;-50
2021/04/17 06:25:57;;;;;;;;;;;;;;;17.59;30.48;100615.72;4419114;32;19950;-54
2021/04/17 06:28:23;;;;;;;;;;;;;;;17.71;30.29;100607.28;4418857;32;20041;-52
2021/04/17 06:30:49;;;;;;;;;;;;;;;17.81;30.11;100608.41;4419557;32;19953;-53
2021/04/17 06:33:15;;;;;;;;;;;;;;;17.78;30.16;100613.59;4418273;32;19942;-53
2021/04/17 06:35:41;;;;;;;;;;;;;;;17.84;30.16;100613.75;4419304;32;20220;-52
2021/04/17 06:38:08;;;;;;;;;;;;;;;17.69;30.33;100609.84;4415420;32;19946;-53
2021/04/17 06:40:34;;;;;;;;;;;;;;;17.84;30.08;100619.00;4414533;32;20028;-54
2021/04/17 06:43:00;;;;;;;;;;;;;;;17.80;30.16;100612.78;4415564;32;19950;-52
2021/04/17 06:45:26;;;;;;;;;;;;;;;17.78;30.15;100611.88;4415543;32;19972;-54
2021/04/17 06:47:52;;;;;;;;;;;;;;;17.84;30.11;100611.09;4415637;32;19991;-50
2021/04/17 06:50:18;;;;;;;;;;;;;;;17.88;30.17;100609.44;4414964;32;19949;-54
2021/04/17 06:52:44;;;;;;;;;;;;;;;17.89;30.04;100609.50;4416580;32;19988;-52
2021/04/17 06:55:10;;;;;;;;;;;;;;;17.94;30.01;100612.25;4415204;32;19997;-51
2021/04/17 06:57:36;;;;;;;;;;;;;;;17.90;30.02;100619.19;4413757;32;20310;-48
2021/04/17 07:00:02;;;;;;;;;;;;;;;17.97;29.95;100610.59;4415083;32;19962;-48
2021/04/17 07:02:28;;;;;;;;;;;;;;;17.89;30.06;100604.25;4407661;32;20033;-53
2021/04/17 07:04:54;;;;;;;;;;;;;;;17.62;30.68;100602.66;4416527;32;19981;-51
2021/04/17 07:07:20;;;;;;;;;;;;;;;17.81;30.35;100608.41;4416412;32;19949;-50
2021/04/17 07:09:46;;;;;;;;;;;;;;;17.76;30.48;100604.75;4415116;32;19962;-52
2021/04/17 07:12:12;;;;;;;;;;;;;;;17.63;30.70;100609.69;4415969;32;20018;-51
2021/04/17 07:14:37;;;;;;;;;;;;;;;17.57;30.81;100606.87;4417130;32;19994;-52
2021/04/17 07:17:03;;;;;;;;;;;;;;;17.67;30.62;100603.66;4416029;32;20272;-47
2021/04/17 07:19:29;;;;;;;;;;;;;;;17.68;30.67;100602.81;4415856;32;19958;-53
2021/04/17 07:21:55;;;;;;;;;;;;;;;17.67;30.63;100601.03;4416987;32;20015;-54
2021/04/17 07:24:21;;;;;;;;;;;;;;;17.72;30.64;100608.16;4416447;32;19954;-52
2021/04/17 07:26:47;;;;;;;;;;;;;;;17.78;30.54;100610.97;4416849;32;19969;-49
2021/04/17 07:29:14;;;;;;;;;;;;;;;17.74;30.62;100598.56;4415621;32;20044;-54
2021/04/17 07:31:39;;;;;;;;;;;;;;;17.77;30.54;100603.91;4415381;32;20409;-54
2021/04/17 07:34:05;;;;;;;;;;;;;;;17.69;30.75;100594.03;4408059;32;19966;-53
2021/04/17 07:36:31;;;;;;;;;;;;;;;17.68;30.79;100597.53;4417598;32;20031;-51
2021/04/17 07:38:57;;;;;;;;;;;;;;;17.71;30.71;100596.75;4416430;32;19962;-53
2021/04/17 07:41:23;;;;;;;;;;;;;;;17.84;30.46;100592.66;4414987;32;20045;-50
2021/04/17 07:43:49;;;;;;;;;;;;;;;17.92;30.35;100598.16;4416369;32;19991;-51
2021/04/17 07:46:15;;;;;;;;;;;;;;;17.97;30.32;100594.81;4415236;32;19965;-50
2021/04/17 07:48:41;;;;;;;;;;;;;;;17.91;30.47;100594.62;4416547;32;19985;-49
2021/04/17 07:51:08;;;;;;;;;;;;;;;17.89;30.60;100595.44;4416209;32;19988;-50
2021/04/17 07:53:34;;;;;;;;;;;;;;;17.72;30.96;100592.34;4417290;32;19966;-51
2021/04/17 07:56:00;;;;;;;;;;;;;;;17.74;31.10;100593.31;4417164;32;19996;-50
2021/04/17 07:58:26;;;;;;;;;;;;;;;17.87;30.75;100594.50;4415332;32;20366;-49
2021/04/17 08:00:52;;;;;;;;;;;;;;;18.07;30.43;100585.41;4416665;32;19987;-52
2021/04/17 08:03:18;;;;;;;;;;;;;;;18.13;30.34;100584.69;4400422;32;19954;-53
2021/04/17 08:05:44;;;;;;;;;;;;;;;18.13;30.44;100589.94;4417300;32;19950;-54
2021/04/17 08:08:10;;;;;;;;;;;;;;;18.17;30.37;100591.78;4416620;32;19990;-53
2021/04/17 08:10:36;;;;;;;;;;;;;;;18.11;30.49;100589.03;4416809;32;20017;-55
2021/04/17 08:13:03;;;;;;;;;;;;;;;17.96;30.86;100590.38;4417132;32;20325;-54
2021/04/17 08:15:29;;;;;;;;;;;;;;;17.96;30.85;100587.75;4415637;32;19942;-53
2021/04/17 08:17:55;;;;;;;;;;;;;;;17.85;31.22;100594.47;4415761;32;20022;-52
2021/04/17 08:20:21;;;;;;;;;;;;;;;17.97;30.96;100597.44;4416469;32;19993;-54
2021/04/17 08:22:47;;;;;;;;;;;;;;;18.11;30.65;100592.53;4417348;32;20415;-54
2021/04/17 08:25:13;;;;;;;;;;;;;;;18.20;30.46;100599.78;4412268;32;19958;-49
2021/04/17 08:27:39;;;;;;;;;;;;;;;18.30;30.39;100597.38;4416066;32;19958;-54
2021/04/17 08:30:07;;;;;;;;;;;;;;;18.33;30.30;100590.44;4416001;32;19997;-54
2021/04/17 08:32:33;;;;;;;;;;;;;;;18.37;30.24;100588.75;4416597;32;19962;-53
2021/04/17 08:34:59;;;;;;;;;;;;;;;18.18;30.53;100593.56;4415974;32;19996;-52
2021/04/17 08:37:25;;;;;;;;;;;;;;;18.22;30.54;100594.53;4415759;32;19988;-53
2021/04/17 08:39:53;;;;;;;;;;;;;;;18.12;30.70;100596.94;4415731;32;19962;-54
2021/04/17 08:42:19;;;;;;;;;;;;;;;18.21;30.67;100603.31;4415462;32;20007;-52
2021/04/17 08:44:45;;;;;;;;;;;;;;;18.21;30.67;100596.31;4415180;32;20402;-49
2021/04/17 08:47:11;;;;;;;;;;;;;;;18.35;30.45;100595.75;4415375;32;19942;-52
2021/04/17 08:49:37;;;;;;;;;;;;;;;18.21;30.69;100600.69;4415928;32;19950;-48
2021/04/17 08:52:03;;;;;;;;;;;;;;;18.31;30.56;100599.16;4416152;32;20401;-51
2021/04/17 08:54:29;;;;;;;;;;;;;;;18.25;30.59;100603.44;4416218;32;19970;-51
2021/04/17 08:56:55;;;;;;;;;;;;;;;18.16;30.61;100600.56;4415063;32;19961;-51
2021/04/17 08:59:21;;;;;;;;;;;;;;;18.14;30.68;100594.34;4416250;32;19949;-49
2021/04/17 09:01:47;;;;;;;;;;;;;;;17.98;30.84;100596.56;4416089;32;19968;-51
2021/04/17 09:04:13;;;;;;;;;;;;;;;18.13;30.84;100597.84;4415402;32;20003;-52
2021/04/17 09:06:39;;;;;;;;;;;;;;;18.24;30.67;100588.47;4415988;32;19988;-50
2021/04/17 09:09:05;;;;;;;;;;;;;;;18.29;30.56;100598.22;4415902;32;19958;-51
2021/04/17 09:11:31;;;;;;;;;;;;;;;18.18;30.71;100596.22;4415191;32;19954;-52
2021/04/17 09:13:57;;;;;;;;;;;;;;;18.07;31.13;100595.94;4413116;32;19993;-54
2021/04/17 09:16:22;;;;;;;;;;;;;;;18.23;30.93;100586.69;4415381;32;20045;-54
2021/04/17 09:18:48;;;;;;;;;;;;;;;18.35;30.70;100582.56;4414533;32;19981;-52
2021/04/17 09:21:14;;;;;;;;;;;;;;;18.22;30.83;100590.19;4414526;32;19984;-52
2021/04/17 09:23:42;;;;;;;;;;;;;;;18.34;30.79;100583.44;4415447;32;19993;-54
2021/04/17 09:26:08;;;;;;;;;;;;;;;18.39;30.78;100577.38;4415232;32;20332;-54
2021/04/17 09:28:34;;;;;;;;;;;;;;;18.47;30.75;100580.22;4415131;32;20324;-53
2021/04/17 09:31:00;;;;;;;;;;;;;;;18.40;30.80;100573.00;4413791;32;19960;-54
2021/04/17 09:33:26;;;;;;;;;;;;;;;18.43;30.85;100573.06;4415109;32;19961;-51
2021/04/17 09:35:52;;;;;;;;;;;;;;;18.49;30.76;100575.87;4416012;32;20009;-54
2021/04/17 09:38:17;;;;;;;;;;;;;;;18.44;30.71;100564.31;4415603;32;19938;-54
2021/04/17 09:40:43;;;;;;;;;;;;;;;18.38;30.94;100567.69;4405633;32;19957;-53
2021/04/17 09:43:09;;;;;;;;;;;;;;;18.49;30.90;100565.31;4415329;32;19946;-50
2021/04/17 09:45:35;;;;;;;;;;;;;;;18.54;30.79;100555.75;4415684;32;19980;-54
2021/04/17 09:48:01;;;;;;;;;;;;;;;18.46;30.89;100557.34;4414792;32;19954;-50
2021/04/17 09:50:27;;;;;;;;;;;;;;;18.57;30.85;100559.31;4407036;32;20335;-50
2021/04/17 09:52:53;;;;;;;;;;;;;;;18.63;30.67;100556.84;4412467;32;19954;-51
2021/04/17 09:55:19;;;;;;;;;;;;;;;18.70;30.54;100549.94;4412227;32;19953;-52
2021/04/17 09:57:45;;;;;;;;;;;;;;;18.69;30.50;100543.75;4411115;32;19990;-50
2021/04/17 10:00:11;;;;;;;;;;;;;;;18.68;30.51;100542.88;4412735;32;19982;-55
2021/04/17 10:02:37;;;;;;;;;;;;;;;18.68;30.39;100540.25;4412215;32;19946;-49
2021/04/17 10:05:03;;;;;;;;;;;;;;;18.71;30.25;100531.53;4412884;32;19962;-50
2021/04/17 10:07:29;;;;;;;;;;;;;;;18.73;30.29;100528.91;4411840;32;20371;-49
2021/04/17 10:09:55;;;;;;;;;;;;;;;18.70;30.15;100532.34;4412311;32;20050;-52
2021/04/17 10:12:20;;;;;;;;;;;;;;;18.67;30.38;100524.38;4411704;32;20035;-53
2021/04/17 10:14:46;;;;;;;;;;;;;;;18.68;30.40;100515.59;4398013;32;19958;-53
2021/04/17 10:17:12;;;;;;;;;;;;;;;18.71;30.26;100518.34;4409147;32;19973;-49
2021/04/17 10:19:38;;;;;;;;;;;;;;;18.65;30.33;100526.09;4410391;32;20572;-51
2021/04/17 10:22:04;;;;;;;;;;;;;;;18.68;30.23;100521.78;4411838;32;19977;-53
2021/04/17 10:24:30;;;;;;;;;;;;;;;18.75;30.11;100506.97;4412492;32;19961;-51
2021/04/17 10:26:56;;;;;;;;;;;;;;;18.80;29.96;100515.88;4411111;32;20264;-53
2021/04/17 10:29:22;;;;;;;;;;;;;;;18.69;30.13;100512.09;4407762;32;19951;-49
2021/04/17 10:31:48;;;;;;;;;;;;;;;18.69;30.00;100506.84;4409741;32;19991;-53
2021/04/17 10:34:13;;;;;;;;;;;;;;;18.68;30.14;100505.06;4412264;32;20298;-53
2021/04/17 10:36:39;;;;;;;;;;;;;;;18.70;29.98;100492.78;4409345;32;19954;-53
2021/04/17 10:39:05;;;;;;;;;;;;;;;18.70;30.00;100498.06;4414994;32;19954;-51
2021/04/17 10:41:31;;;;;;;;;;;;;;;18.70;29.99;100505.97;4414283;32;20010;-54
2021/04/17 10:43:57;;;;;;;;;;;;;;;18.67;30.02;100498.00;4414360;32;20358;-51
2021/04/17 10:46:23;;;;;;;;;;;;;;;18.67;30.03;100503.28;4417314;32;20049;-52
2021/04/17 10:48:49;;;;;;;;;;;;;;;18.68;30.06;100499.78;4416068;32;19977;-52
2021/04/17 10:51:14;;;;;;;;;;;;;;;18.65;30.12;100503.25;4417566;32;19954;-51
2021/04/17 10:53:40;;;;;;;;;;;;;;;18.67;30.12;100492.72;4416391;32;19995;-50
2021/04/17 10:56:06;;;;;;;;;;;;;;;18.67;30.17;100498.00;4416365;32;20384;-52
2021/04/17 10:58:32;;;;;;;;;;;;;;;18.67;30.14;100498.00;4418247;32;19969;-53
2021/04/17 11:00:58;;;;;;;;;;;;;;;18.65;30.30;100502.34;4417150;32;19962;-52
2021/04/17 11:03:24;;;;;;;;;;;;;;;18.63;30.35;100485.63;4418291;32;19941;-54
2021/04/17 11:05:50;;;;;;;;;;;;;;;18.65;30.46;100484.81;4419241;32;19942;-54
2021/04/17 11:08:16;;;;;;;;;;;;;;;18.62;30.46;100484.72;4418441;32;19961;-54
2021/04/17 11:10:42;;;;;;;;;;;;;;;18.66;30.50;100481.31;4419003;32;19946;-50
2021/04/17 11:13:07;;;;;;;;;;;;;;;18.69;30.54;100475.19;4418424;32;20267;-49
2021/04/17 11:15:33;;;;;;;;;;;;;;;18.71;30.59;100480.50;4418392;32;19965;-54
2021/04/17 11:17:59;;;;;;;;;;;;;;;18.73;30.57;100478.78;4412245;32;20409;-54
2021/04/17 11:20:25;;;;;;;;;;;;;;;18.75;30.55;100480.59;4415375;32;19971;-54
2021/04/17 11:22:51;;;;;;;;;;;;;;;18.79;30.48;100478.91;4416184;32;20360;-51
2021/04/17 11:25:17;;;;;;;;;;;;;;;18.74;30.51;100470.91;4412453;32;19976;-50
2021/04/17 11:27:43;;;;;;;;;;;;;;;18.80;30.43;100473.66;4415527;32;19957;-54
2021/04/17 11:30:09;;;;;;;;;;;;;;;18.78;30.20;100474.50;4415565;32;20333;-54
2021/04/17 11:32:35;;;;;;;;;;;;;;;18.87;30.29;100476.44;4415117;32;19999;-52
2021/04/17 11:35:01;;;;;;;;;;;;;;;18.93;30.33;100465.97;4414821;32;19993;-52
2021/04/17 11:37:30;;;;;;;;;;;;;;;18.95;30.42;100472.19;4410488;32;19976;-52
2021/04/17 11:39:56;;;;;;;;;;;;;;;18.94;30.30;100467.75;4413705;32;20071;-47
2021/04/17 11:42:22;;;;;;;;;;;;;;;18.91;30.29;100475.62;4413172;32;20040;-53
2021/04/17 11:44:48;;;;;;;;;;;;;;;18.93;30.25;100466.88;4415176;32;19966;-55
2021/04/17 11:47:14;;;;;;;;;;;;;;;18.92;30.31;100461.56;4414083;32;19942;-53
2021/04/17 11:49:40;;;;;;;;;;;;;;;18.98;30.39;100461.69;4409930;32;20032;-55
2021/04/17 11:52:06;;;;;;;;;;;;;;;18.95;30.18;100469.53;4404217;32;19994;-52
2021/04/17 11:54:32;;;;;;;;;;;;;;;18.99;30.24;100463.47;4415729;32;19995;-51
2021/04/17 11:56:58;;;;;;;;;;;;;;;18.97;30.24;100459.94;4414111;32;20374;-50
2021/04/17 11:59:24;;;;;;;;;;;;;;;19.09;30.18;100456.66;4407963;32;19973;-50
2021/04/17 12:01:50;;;;;;;;;;;;;;;19.07;30.12;100456.63;4414030;32;19957;-49
2021/04/17 12:04:17;;;;;;;;;;;;;;;19.13;30.21;100454.97;4414768;32;19988;-52
2021/04/17 12:06:43;;;;;;;;;;;;;;;19.10;30.33;100446.13;4416213;32;19972;-51
2021/04/17 12:09:09;;;;;;;;;;;;;;;19.16;30.22;100453.28;4413468;32;19993;-54
2021/04/17 12:11:35;;;;;;;;;;;;;;;19.14;30.14;100446.19;4412949;32;19966;-56
2021/04/17 12:14:01;;;;;;;;;;;;;;;19.02;30.27;100447.72;4414534;32;20372;-49
2021/04/17 12:16:27;;;;;;;;;;;;;;;19.08;30.12;100442.59;4414528;32;20330;-54
2021/04/17 12:18:53;;;;;;;;;;;;;;;19.13;30.07;100445.28;4414923;32;19958;-54
2021/04/17 12:21:19;;;;;;;;;;;;;;;19.10;30.31;100440.84;4415007;32;19958;-53
2021/04/17 12:23:44;;;;;;;;;;;;;;;19.17;30.31;100440.94;4415889;32;20290;-51
2021/04/17 12:26:10;;;;;;;;;;;;;;;19.20;30.20;100447.19;4415366;32;19997;-50
2021/04/17 12:28:36;;;;;;;;;;;;;;;19.15;30.34;100443.59;4415329;32;20335;-51